createdAt,value
2022-11-27T00:01:39.903Z,4.57
2022-11-27T00:04:07.120Z,4.56
2022-11-27T00:06:34.034Z,4.54
2022-11-27T00:09:01.246Z,4.54
2022-11-27T00:11:28.637Z,4.55
2022-11-27T00:13:55.438Z,4.55
2022-11-27T00:16:22.468Z,4.56
2022-11-27T00:18:49.557Z,4.53
2022-11-27T00:21:26.467Z,4.51
2022-11-27T00:23:53.609Z,4.48
2022-11-27T00:26:20.194Z,4.50
2022-11-27T00:28:46.598Z,4.51
2022-11-27T00:31:14.801Z,4.50
2022-11-27T00:33:41.237Z,4.50
2022-11-27T00:36:08.237Z,4.51
2022-11-27T00:38:38.825Z,4.50
2022-11-27T00:41:09.783Z,4.49
2022-11-27T00:43:43.468Z,4.53
2022-11-27T00:46:10.398Z,4.54
2022-11-27T00:48:36.959Z,4.57
2022-11-27T00:51:05.532Z,4.58
2022-11-27T00:53:32.177Z,4.58
2022-11-27T00:55:58.680Z,4.55
2022-11-27T00:58:25.862Z,4.48
2022-11-27T01:00:55.982Z,4.49
2022-11-27T01:03:22.745Z,4.50
2022-11-27T01:05:49.318Z,4.50
2022-11-27T01:08:15.748Z,4.47
2022-11-27T01:10:54.442Z,4.36
2022-11-27T01:13:25.503Z,4.32
2022-11-27T01:16:05.533Z,4.37
2022-11-27T01:18:32.095Z,4.36
2022-11-27T01:20:58.492Z,4.41
2022-11-27T01:23:25.371Z,4.44
2022-11-27T01:25:53.829Z,4.42
2022-11-27T01:28:22.853Z,4.49
2022-11-27T01:30:49.614Z,4.52
2022-11-27T01:33:16.436Z,4.54
2022-11-27T01:35:42.974Z,4.54
2022-11-27T01:38:09.601Z,4.54
2022-11-27T01:40:36.026Z,4.51
2022-11-27T01:43:02.429Z,4.52
2022-11-27T01:45:28.875Z,4.52
2022-11-27T01:47:58.708Z,4.52
2022-11-27T01:50:26.861Z,4.54
2022-11-27T01:52:55.821Z,4.56
2022-11-27T01:55:42.725Z,4.55
2022-11-27T01:58:15.029Z,4.54
2022-11-27T02:00:41.696Z,4.54
2022-11-27T02:03:08.146Z,4.40
2022-11-27T02:05:34.632Z,4.34
2022-11-27T02:08:03.632Z,4.37
2022-11-27T02:10:38.013Z,4.40
2022-11-27T02:13:07.532Z,4.40
2022-11-27T02:15:52.860Z,4.44
2022-11-27T02:18:25.170Z,4.47
2022-11-27T02:21:06.759Z,4.45
2022-11-27T02:23:36.252Z,4.46
2022-11-27T02:26:08.710Z,4.47
2022-11-27T02:28:53.905Z,4.48
2022-11-27T02:31:29.655Z,4.44
2022-11-27T02:34:00.282Z,4.40
2022-11-27T02:36:29.768Z,4.41
2022-11-27T02:39:09.059Z,4.42
2022-11-27T02:41:42.445Z,4.42
2022-11-27T02:44:10.026Z,4.41
2022-11-27T02:46:37.558Z,4.41
2022-11-27T02:49:06.450Z,4.39
2022-11-27T02:51:39.124Z,4.40
2022-11-27T02:54:07.396Z,4.44
2022-11-27T02:56:34.767Z,4.43
2022-11-27T02:59:06.452Z,4.36
2022-11-27T03:01:36.224Z,4.36
2022-11-27T03:04:06.400Z,4.35
2022-11-27T03:06:48.865Z,4.33
2022-11-27T03:09:18.940Z,4.33
2022-11-27T03:11:45.713Z,4.35
2022-11-27T03:14:12.565Z,4.35
2022-11-27T03:16:57.526Z,4.34
2022-11-27T03:19:47.315Z,4.36
2022-11-27T03:22:13.906Z,4.36
2022-11-27T03:24:41.014Z,4.39
2022-11-27T03:27:08.731Z,4.37
2022-11-27T03:29:35.347Z,4.37
2022-11-27T03:32:02.171Z,4.36
2022-11-27T03:34:29.104Z,4.34
2022-11-27T03:36:55.495Z,4.35
2022-11-27T03:39:22.889Z,4.26
2022-11-27T03:41:49.582Z,4.28
2022-11-27T03:44:34.536Z,4.31
2022-11-27T03:47:12.662Z,4.31
2022-11-27T03:49:57.089Z,4.29
2022-11-27T03:52:35.789Z,4.32
2022-11-27T03:55:10.330Z,4.34
2022-11-27T03:57:45.951Z,4.35
2022-11-27T04:00:12.725Z,4.35
2022-11-27T04:02:46.905Z,4.36
2022-11-27T04:05:13.996Z,4.33
2022-11-27T04:07:40.682Z,4.29
2022-11-27T04:10:07.657Z,4.32
2022-11-27T04:12:34.069Z,4.32
2022-11-27T04:15:00.548Z,4.30
2022-11-27T04:17:27.319Z,4.29
2022-11-27T04:19:53.785Z,4.27
2022-11-27T04:22:20.243Z,4.22
2022-11-27T04:24:46.623Z,4.21
2022-11-27T04:27:13.048Z,4.22
2022-11-27T04:29:39.463Z,4.23
2022-11-27T04:32:05.985Z,4.25
2022-11-27T04:34:32.746Z,4.23
2022-11-27T04:36:59.493Z,4.21
2022-11-27T04:39:26.201Z,4.19
2022-11-27T04:41:52.606Z,4.18
2022-11-27T04:44:19.060Z,4.14
2022-11-27T04:46:45.482Z,4.15
2022-11-27T04:49:11.958Z,4.17
2022-11-27T04:51:38.345Z,4.14
2022-11-27T04:54:04.752Z,4.05
2022-11-27T04:56:31.144Z,4.02
2022-11-27T04:58:57.552Z,3.94
2022-11-27T05:01:24.111Z,3.92
2022-11-27T05:03:50.546Z,3.89
2022-11-27T05:06:17.054Z,3.84
2022-11-27T05:08:43.534Z,3.78
2022-11-27T05:11:14.060Z,3.76
2022-11-27T05:13:40.852Z,3.76
2022-11-27T05:16:07.452Z,3.80
2022-11-27T05:18:34.025Z,3.79
2022-11-27T05:21:01.741Z,3.77
2022-11-27T05:23:28.418Z,3.73
2022-11-27T05:25:54.865Z,3.67
2022-11-27T05:28:26.410Z,3.69
2022-11-27T05:30:53.364Z,3.70
2022-11-27T05:33:19.742Z,3.64
2022-11-27T05:35:46.230Z,3.65
2022-11-27T05:38:13.111Z,3.64
2022-11-27T05:40:39.572Z,3.60
2022-11-27T05:43:06.202Z,3.62
2022-11-27T05:45:32.603Z,3.66
2022-11-27T05:47:58.971Z,3.65
2022-11-27T05:50:25.431Z,3.67
2022-11-27T05:52:51.822Z,3.60
2022-11-27T05:55:18.220Z,3.53
2022-11-27T05:57:44.594Z,3.52
2022-11-27T06:00:11.382Z,3.50
2022-11-27T06:02:38.010Z,3.56
2022-11-27T06:05:04.554Z,3.52
2022-11-27T06:07:31.368Z,3.56
2022-11-27T06:09:57.845Z,3.59
2022-11-27T06:12:24.247Z,3.60
2022-11-27T06:14:50.659Z,3.55
2022-11-27T06:17:17.049Z,3.51
2022-11-27T06:19:43.459Z,3.52
2022-11-27T06:22:09.808Z,3.52
2022-11-27T06:24:36.253Z,3.45
2022-11-27T06:27:02.717Z,3.40
2022-11-27T06:29:29.091Z,3.32
2022-11-27T06:31:55.557Z,3.37
2022-11-27T06:34:21.950Z,3.44
2022-11-27T06:36:49.365Z,3.40
2022-11-27T06:39:15.736Z,3.40
2022-11-27T06:41:43.350Z,3.32
2022-11-27T06:44:10.600Z,3.28
2022-11-27T06:46:36.994Z,3.29
2022-11-27T06:49:03.410Z,3.33
2022-11-27T06:51:30.638Z,3.31
2022-11-27T06:53:58.633Z,3.33
2022-11-27T06:56:26.200Z,3.30
2022-11-27T06:58:53.733Z,3.37
2022-11-27T07:01:21.155Z,3.40
2022-11-27T07:03:47.975Z,3.46
2022-11-27T07:06:15.345Z,3.49
2022-11-27T07:08:42.200Z,3.56
2022-11-27T07:11:10.583Z,3.57
2022-11-27T07:13:37.032Z,3.57
2022-11-27T07:16:05.163Z,3.50
2022-11-27T07:18:34.975Z,3.45
2022-11-27T07:21:01.358Z,3.46
2022-11-27T07:23:27.767Z,3.54
2022-11-27T07:25:54.135Z,3.52
2022-11-27T07:28:20.546Z,3.47
2022-11-27T07:30:54.141Z,3.43
2022-11-27T07:33:20.506Z,3.41
2022-11-27T07:35:46.871Z,3.49
2022-11-27T07:38:13.320Z,3.54
2022-11-27T07:40:39.878Z,3.56
2022-11-27T07:43:06.262Z,3.60
2022-11-27T07:45:32.712Z,3.64
2022-11-27T07:47:59.409Z,3.67
2022-11-27T07:50:25.821Z,3.66
2022-11-27T07:52:52.194Z,3.66
2022-11-27T07:55:18.577Z,3.64
2022-11-27T07:57:44.963Z,3.67
2022-11-27T08:00:11.544Z,3.69
2022-11-27T08:02:37.997Z,3.68
2022-11-27T08:05:09.567Z,3.62
2022-11-27T08:07:38.785Z,3.60
2022-11-27T08:10:05.403Z,3.58
2022-11-27T08:12:31.777Z,3.60
2022-11-27T08:14:58.216Z,3.65
2022-11-27T08:17:24.605Z,3.66
2022-11-27T08:19:51.005Z,3.61
2022-11-27T08:22:19.543Z,3.53
2022-11-27T08:24:46.582Z,3.54
2022-11-27T08:27:12.947Z,3.58
2022-11-27T08:29:39.529Z,3.62
2022-11-27T08:32:06.260Z,3.66
2022-11-27T08:34:32.695Z,3.70
2022-11-27T08:36:59.155Z,3.72
2022-11-27T08:39:26.761Z,3.74
2022-11-27T08:41:53.821Z,3.72
2022-11-27T08:44:20.562Z,3.68
2022-11-27T08:46:46.938Z,3.69
2022-11-27T08:49:13.520Z,3.72
2022-11-27T08:51:39.945Z,3.74
2022-11-27T08:54:06.552Z,3.78
2022-11-27T08:56:32.948Z,3.82
2022-11-27T08:58:59.442Z,3.80
2022-11-27T09:01:27.144Z,3.81
2022-11-27T09:03:53.604Z,3.80
2022-11-27T09:06:23.305Z,3.81
2022-11-27T09:08:50.337Z,3.82
2022-11-27T09:11:17.847Z,3.85
2022-11-27T09:13:44.769Z,3.92
2022-11-27T09:16:12.735Z,3.95
2022-11-27T09:18:39.801Z,3.97
2022-11-27T09:21:07.753Z,4.00
2022-11-27T09:23:34.145Z,4.02
2022-11-27T09:26:01.437Z,3.99
2022-11-27T09:28:31.332Z,3.93
2022-11-27T09:30:59.454Z,3.99
2022-11-27T09:33:26.668Z,4.01
2022-11-27T09:35:53.420Z,4.03
2022-11-27T09:38:19.808Z,4.05
2022-11-27T09:40:49.882Z,4.06
2022-11-27T09:43:17.006Z,4.10
2022-11-27T09:45:45.479Z,4.14
2022-11-27T09:48:16.224Z,4.18
2022-11-27T09:50:50.292Z,4.21
2022-11-27T09:53:40.003Z,4.20
2022-11-27T09:56:11.432Z,4.20
2022-11-27T09:58:39.820Z,4.25
2022-11-27T10:01:17.315Z,4.22
2022-11-27T10:03:44.922Z,4.20
2022-11-27T10:06:11.290Z,4.22
2022-11-27T10:08:55.768Z,4.23
2022-11-27T10:11:30.613Z,4.23
2022-11-27T10:14:03.464Z,4.22
2022-11-27T10:16:44.051Z,4.21
2022-11-27T10:19:26.372Z,4.20
2022-11-27T10:22:15.426Z,4.20
2022-11-27T10:24:58.012Z,4.20
2022-11-27T10:27:28.436Z,4.19
2022-11-27T10:29:56.252Z,4.21
2022-11-27T10:32:54.148Z,4.21
2022-11-27T10:35:17.446Z,4.20
2022-11-27T10:37:47.227Z,4.27
2022-11-27T10:40:13.790Z,4.34
2022-11-27T10:43:04.739Z,4.34
2022-11-27T10:45:34.264Z,4.32
2022-11-27T10:48:00.689Z,4.31
2022-11-27T10:50:27.062Z,4.33
2022-11-27T10:52:55.880Z,4.31
2022-11-27T10:55:42.527Z,4.25
2022-11-27T10:58:15.847Z,4.20
2022-11-27T11:00:42.328Z,4.24
2022-11-27T11:03:15.854Z,4.31
2022-11-27T11:06:11.774Z,4.40
2022-11-27T11:08:29.401Z,4.43
2022-11-27T11:11:00.931Z,4.45
2022-11-27T11:13:28.952Z,4.45
2022-11-27T11:16:04.682Z,4.46
2022-11-27T11:18:32.792Z,4.48
2022-11-27T11:21:01.287Z,4.51
2022-11-27T11:23:30.847Z,4.47
2022-11-27T11:25:59.748Z,4.44
2022-11-27T11:28:26.493Z,4.36
2022-11-27T11:30:58.590Z,4.40
2022-11-27T11:33:25.708Z,4.46
2022-11-27T11:35:53.615Z,4.49
2022-11-27T11:38:25.311Z,4.50
2022-11-27T11:41:02.771Z,4.53
2022-11-27T11:43:35.242Z,4.55
2022-11-27T11:46:08.449Z,4.50
2022-11-27T11:48:36.323Z,4.49
2022-11-27T11:51:08.845Z,4.47
2022-11-27T11:53:37.601Z,4.48
2022-11-27T11:56:03.945Z,4.51
2022-11-27T11:58:33.494Z,4.51
2022-11-27T12:01:26.589Z,4.53
2022-11-27T12:03:56.809Z,4.53
2022-11-27T12:06:31.748Z,4.47
2022-11-27T12:09:15.253Z,4.52
2022-11-27T12:11:53.842Z,4.52
2022-11-27T12:14:26.942Z,4.54
2022-11-27T12:17:14.246Z,4.45
2022-11-27T12:19:49.638Z,4.35
2022-11-27T12:22:22.268Z,4.34
2022-11-27T12:24:55.581Z,4.41
2022-11-27T12:27:40.903Z,4.47
2022-11-27T12:30:19.667Z,4.48
2022-11-27T12:33:01.496Z,4.39
2022-11-27T12:35:32.467Z,4.33
2022-11-27T12:38:17.409Z,4.35
2022-11-27T12:41:04.046Z,4.41
2022-11-27T12:43:32.187Z,4.44
2022-11-27T12:46:11.252Z,4.47
2022-11-27T12:48:49.809Z,4.47
2022-11-27T12:51:26.162Z,4.44
2022-11-27T12:53:56.891Z,4.45
2022-11-27T12:56:24.645Z,4.38
2022-11-27T12:58:57.219Z,4.33
2022-11-27T13:01:26.805Z,4.32
2022-11-27T13:04:06.076Z,4.39
2022-11-27T13:06:36.010Z,4.42
2022-11-27T13:09:05.347Z,4.45
2022-11-27T13:11:33.384Z,4.43
2022-11-27T13:14:06.023Z,4.40
2022-11-27T13:16:41.206Z,4.37
2022-11-27T13:19:13.472Z,4.36
2022-11-27T13:21:41.436Z,4.37
2022-11-27T13:24:11.749Z,4.37
2022-11-27T13:27:04.798Z,4.36
2022-11-27T13:29:40.140Z,4.36
2022-11-27T13:32:07.910Z,4.35
2022-11-27T13:34:42.498Z,4.37
2022-11-27T13:37:09.924Z,4.38
2022-11-27T13:39:36.295Z,4.38
2022-11-27T13:42:07.420Z,4.37
2022-11-27T13:44:37.452Z,4.36
2022-11-27T13:47:15.573Z,4.39
2022-11-27T13:49:43.504Z,4.39
2022-11-27T13:52:09.902Z,4.43
2022-11-27T13:54:36.498Z,4.43
2022-11-27T13:57:09.968Z,4.38
2022-11-27T13:59:39.275Z,4.35
2022-11-27T14:02:07.302Z,4.36
2022-11-27T14:04:34.278Z,4.42
2022-11-27T14:07:03.586Z,4.46
2022-11-27T14:09:35.225Z,4.47
2022-11-27T14:12:02.371Z,4.46
2022-11-27T14:14:29.805Z,4.44
2022-11-27T14:16:59.454Z,4.41
2022-11-27T14:19:34.720Z,4.43
2022-11-27T14:22:01.842Z,4.46
2022-11-27T14:24:51.113Z,4.46
2022-11-27T14:27:17.479Z,4.46
2022-11-27T14:29:44.020Z,4.47
2022-11-27T14:32:11.780Z,4.47
2022-11-27T14:34:38.223Z,4.50
2022-11-27T14:37:04.609Z,4.48
2022-11-27T14:39:35.786Z,4.47
2022-11-27T14:42:03.146Z,4.47
2022-11-27T14:44:30.184Z,4.43
2022-11-27T14:46:58.608Z,4.44
2022-11-27T14:49:26.773Z,4.45
2022-11-27T14:51:53.829Z,4.44
2022-11-27T14:54:32.337Z,4.42
2022-11-27T14:56:58.951Z,4.38
2022-11-27T14:59:25.738Z,4.33
2022-11-27T15:02:01.545Z,4.30
2022-11-27T15:04:29.499Z,4.29
2022-11-27T15:06:57.491Z,4.26
2022-11-27T15:09:33.578Z,4.25
2022-11-27T15:12:26.552Z,4.24
2022-11-27T15:15:08.099Z,4.24
2022-11-27T15:17:36.417Z,4.21
2022-11-27T15:20:04.174Z,4.21
2022-11-27T15:22:33.384Z,4.15
2022-11-27T15:25:05.058Z,4.13
2022-11-27T15:27:47.273Z,4.14
2022-11-27T15:30:17.582Z,4.15
2022-11-27T15:32:46.972Z,4.16
2022-11-27T15:35:14.448Z,4.10
2022-11-27T15:37:41.032Z,4.05
2022-11-27T15:40:22.326Z,4.01
2022-11-27T15:42:48.770Z,3.98
2022-11-27T15:45:15.214Z,3.97
2022-11-27T15:47:41.625Z,3.98
2022-11-27T15:50:13.729Z,3.99
2022-11-27T15:52:40.176Z,3.98
2022-11-27T15:55:06.926Z,3.94
2022-11-27T15:57:33.295Z,3.94
2022-11-27T15:59:59.764Z,3.95
2022-11-27T16:02:30.299Z,3.96
2022-11-27T16:04:56.756Z,3.98
2022-11-27T16:07:23.165Z,3.94
2022-11-27T16:09:49.616Z,3.88
2022-11-27T16:12:16.042Z,3.81
2022-11-27T16:14:42.799Z,3.79
2022-11-27T16:17:09.423Z,3.82
2022-11-27T16:19:35.794Z,3.83
2022-11-27T16:22:02.168Z,3.87
2022-11-27T16:24:28.567Z,3.88
2022-11-27T16:26:54.980Z,3.86
2022-11-27T16:29:21.392Z,3.85
2022-11-27T16:31:47.901Z,3.82
2022-11-27T16:34:14.676Z,3.82
2022-11-27T16:36:43.750Z,3.77
2022-11-27T16:39:13.036Z,3.78
2022-11-27T16:41:39.575Z,3.78
2022-11-27T16:44:13.015Z,3.78
2022-11-27T16:46:39.368Z,3.79
2022-11-27T16:49:09.078Z,3.80
2022-11-27T16:51:37.269Z,3.82
2022-11-27T16:54:05.383Z,3.81
2022-11-27T16:56:33.237Z,3.79
2022-11-27T16:59:03.119Z,3.77
2022-11-27T17:01:31.828Z,3.74
2022-11-27T17:03:59.641Z,3.72
2022-11-27T17:06:27.539Z,3.71
2022-11-27T17:08:54.572Z,3.72
2022-11-27T17:11:22.484Z,3.75
2022-11-27T17:13:49.497Z,3.67
2022-11-27T17:16:15.934Z,3.60
2022-11-27T17:18:42.958Z,3.55
2022-11-27T17:21:10.998Z,3.58
2022-11-27T17:23:38.043Z,3.56
2022-11-27T17:26:08.124Z,3.60
2022-11-27T17:28:34.832Z,3.63
2022-11-27T17:31:01.270Z,3.61
2022-11-27T17:33:27.838Z,3.60
2022-11-27T17:35:54.442Z,3.60
2022-11-27T17:38:20.812Z,3.58
2022-11-27T17:40:47.228Z,3.59
2022-11-27T17:43:13.594Z,3.59
2022-11-27T17:45:40.685Z,3.61
2022-11-27T17:48:07.139Z,3.64
2022-11-27T17:50:33.531Z,3.65
2022-11-27T17:52:59.926Z,3.67
2022-11-27T17:55:26.333Z,3.64
2022-11-27T17:57:53.795Z,3.63
2022-11-27T18:00:20.334Z,3.58
2022-11-27T18:02:46.708Z,3.56
2022-11-27T18:05:13.092Z,3.55
2022-11-27T18:07:39.549Z,3.53
2022-11-27T18:10:06.400Z,3.53
2022-11-27T18:12:32.766Z,3.51
2022-11-27T18:15:01.528Z,3.48
2022-11-27T18:17:28.463Z,3.50
2022-11-27T18:19:57.148Z,3.54
2022-11-27T18:22:24.210Z,3.55
2022-11-27T18:24:50.580Z,3.56
2022-11-27T18:27:17.663Z,3.52
2022-11-27T18:29:47.271Z,3.52
2022-11-27T18:32:15.020Z,3.51
2022-11-27T18:34:41.596Z,3.50
2022-11-27T18:37:08.548Z,3.50
2022-11-27T18:39:35.895Z,3.50
2022-11-27T18:42:03.486Z,3.53
2022-11-27T18:44:29.873Z,3.56
2022-11-27T18:46:56.424Z,3.55
2022-11-27T18:49:23.309Z,3.55
2022-11-27T18:51:50.895Z,3.52
2022-11-27T18:54:17.336Z,3.48
2022-11-27T18:56:43.731Z,3.46
2022-11-27T18:59:10.135Z,3.44
2022-11-27T19:01:41.868Z,3.45
2022-11-27T19:04:09.517Z,3.42
2022-11-27T19:06:36.821Z,3.46
2022-11-27T19:09:03.865Z,3.47
2022-11-27T19:11:31.060Z,3.49
2022-11-27T19:13:57.850Z,3.50
2022-11-27T19:16:26.381Z,3.50
2022-11-27T19:18:53.410Z,3.48
2022-11-27T19:21:21.703Z,3.44
2022-11-27T19:23:48.535Z,3.40
2022-11-27T19:26:16.562Z,3.39
2022-11-27T19:28:44.172Z,3.41
2022-11-27T19:31:12.056Z,3.44
2022-11-27T19:33:39.588Z,3.45
2022-11-27T19:36:08.608Z,3.42
2022-11-27T19:38:35.514Z,3.40
2022-11-27T19:41:02.435Z,3.38
2022-11-27T19:43:28.846Z,3.35
2022-11-27T19:45:55.291Z,3.36
2022-11-27T19:48:23.562Z,3.39
2022-11-27T19:50:51.653Z,3.42
2022-11-27T19:53:18.205Z,3.39
2022-11-27T19:55:44.609Z,3.41
2022-11-27T19:58:12.389Z,3.41
2022-11-27T20:00:38.800Z,3.41
2022-11-27T20:03:05.214Z,3.42
2022-11-27T20:05:31.582Z,3.45
2022-11-27T20:07:59.565Z,3.43
2022-11-27T20:10:26.342Z,3.40
2022-11-27T20:12:52.710Z,3.36
2022-11-27T20:15:19.656Z,3.35
2022-11-27T20:17:46.021Z,3.39
2022-11-27T20:20:13.414Z,3.38
2022-11-27T20:22:39.835Z,3.33
2022-11-27T20:25:21.773Z,3.29
2022-11-27T20:27:48.334Z,3.26
2022-11-27T20:30:14.784Z,3.28
2022-11-27T20:32:41.231Z,3.27
2022-11-27T20:35:08.114Z,3.25
2022-11-27T20:37:35.030Z,3.24
2022-11-27T20:40:01.563Z,3.24
2022-11-27T20:42:27.990Z,3.22
2022-11-27T20:44:54.390Z,3.22
2022-11-27T20:47:20.859Z,3.20
2022-11-27T20:49:47.346Z,3.17
2022-11-27T20:52:14.661Z,3.17
2022-11-27T20:54:41.077Z,3.14
2022-11-27T20:57:08.824Z,3.13
2022-11-27T20:59:35.250Z,3.13
2022-11-27T21:02:02.745Z,3.09
2022-11-27T21:04:29.233Z,3.06
2022-11-27T21:06:57.162Z,3.07
2022-11-27T21:09:24.305Z,3.13
2022-11-27T21:11:50.783Z,3.18
2022-11-27T21:14:17.806Z,3.21
2022-11-27T21:16:48.045Z,3.23
2022-11-27T21:19:16.601Z,3.24
2022-11-27T21:21:43.122Z,3.21
2022-11-27T21:24:09.619Z,3.19
2022-11-27T21:26:36.045Z,3.17
2022-11-27T21:29:02.585Z,3.16
2022-11-27T21:31:35.899Z,3.19
2022-11-27T21:34:04.565Z,3.20
2022-11-27T21:36:32.297Z,3.20
2022-11-27T21:38:59.620Z,3.21
2022-11-27T21:41:26.407Z,3.17
2022-11-27T21:43:57.092Z,3.15
2022-11-27T21:46:24.671Z,3.16
2022-11-27T21:48:51.703Z,3.16
2022-11-27T21:51:21.102Z,3.13
2022-11-27T21:53:48.513Z,3.13
2022-11-27T21:56:16.258Z,3.12
2022-11-27T21:58:43.042Z,3.09
2022-11-27T22:01:11.590Z,3.12
2022-11-27T22:03:42.344Z,3.11
2022-11-27T22:06:16.128Z,3.03
2022-11-27T22:08:43.628Z,3.00
2022-11-27T22:11:11.559Z,3.08
2022-11-27T22:13:38.326Z,3.12
2022-11-27T22:16:13.012Z,3.13
2022-11-27T22:18:39.863Z,3.16
2022-11-27T22:21:06.909Z,3.15
2022-11-27T22:23:33.668Z,3.13
2022-11-27T22:26:01.279Z,3.11
2022-11-27T22:28:28.037Z,3.13
2022-11-27T22:30:54.469Z,3.13
2022-11-27T22:33:20.884Z,3.15
2022-11-27T22:35:47.284Z,3.17
2022-11-27T22:38:13.684Z,3.17
2022-11-27T22:40:40.397Z,3.20
2022-11-27T22:43:06.762Z,3.19
2022-11-27T22:45:33.284Z,3.17
2022-11-27T22:47:59.679Z,3.17
2022-11-27T22:50:26.112Z,3.18
2022-11-27T22:52:55.766Z,3.14
2022-11-27T22:55:24.623Z,3.11
2022-11-27T22:57:51.033Z,3.07
2022-11-27T23:00:17.523Z,3.05
2022-11-27T23:02:43.994Z,3.04
2022-11-27T23:05:10.403Z,3.07
2022-11-27T23:07:36.843Z,3.07
2022-11-27T23:10:03.529Z,3.06
2022-11-27T23:12:29.892Z,3.11
2022-11-27T23:14:56.290Z,3.14
2022-11-27T23:17:22.658Z,3.17
2022-11-27T23:19:49.110Z,3.17
2022-11-27T23:22:15.535Z,3.15
2022-11-27T23:24:42.205Z,3.12
2022-11-27T23:27:08.808Z,3.10
2022-11-27T23:29:35.252Z,3.07
2022-11-27T23:32:01.726Z,3.05
2022-11-27T23:34:28.762Z,3.01
2022-11-27T23:36:55.127Z,2.98
2022-11-27T23:39:21.506Z,2.98
2022-11-27T23:41:49.556Z,3.03
2022-11-27T23:44:16.167Z,3.00
2022-11-27T23:46:42.841Z,3.02
2022-11-27T23:49:09.220Z,3.01
2022-11-27T23:51:35.677Z,2.98
2022-11-27T23:54:05.913Z,3.00
2022-11-27T23:56:32.450Z,3.00
2022-11-27T23:58:59.185Z,2.99
